首页
METAR-TAF:

METAR-TAF

机场 :

內排國際機場

河內, 越南

纬度: 21-01N, 经度: 105-48E, 海拔: 6米

当前天气观测

该预报发布于11分钟前的17:00 UTC
风速6节,风向北转东北,在东转东北之间变化
温度 12°C
湿度 88%
气压 1023 hPa
能见度10公里或以上
多云层高于3600英尺

METAR: VVNB 161700Z 02006KT 350V060 9999 BKN036 12/10 Q1023 NOSIG

时间: 00:11 (17:11 UTC)

预报

该预报发布于6小时和11分钟前的11:00 UTC
预报有效从16日的 12点(UTC)到 17日的 12点(UTC)
风速8节,风向北转东北
能見度: 6000
少量云层高于1000英尺
多云层高于3000英尺
短暂存在
从 16日的 12点(UTC)到 16日的 15点(UTC)
能見度: 4500
散云层高于800英尺
多云层高于3000英尺
小雨, 轻雾
短暂存在
从 16日的 22点(UTC)到 17日的 01点(UTC)
能見度: 4000
散云层高于800英尺
多云层高于3000英尺
雨, 轻雾

TAF: VVNB 161100Z 1612/1712 02008KT 6000 FEW010 BKN030 TEMPO 1612/1615 4500 -RA BR SCT008 BKN030 TEMPO 1622/1701 4000 RA BR SCT008 BKN030

超过4000个机场的气象观测和天气预报(METAR&TAF报告)。

可查询的气象台以黄色和红色小点在地图上表示。

将鼠标移到小点上方,可查看气象台名称。

然后点击查看天气观测和预报。

如需切换地图:点击带黑十字的绿色按钮放大地图;点击带横线的绿色按钮缩小地图;或者点击绿色箭头查看邻近地区的地图。


METAR-TAF: